Time;durP1;ratioP1;P1;durP2;ratioP2;P2;SDS_P1;SDS_P2;PMS_P1;PMS_P2;Temp;Humidity;BMP_temperature;BMP_pressure;BME280_temperature;BME280_humidity;BME280_pressure;Samples;Min_cycle;Max_cycle;Signal;HPM_P1;HPM_P2
2022/08/22 00:00:16;;;;;;;23.23;10.50;;;;;;;;;;6229455;28;21361;-60
2022/08/22 00:03:52;;;;;;;25.48;11.10;;;;;;;;;;6226050;28;20057;-60
2022/08/22 00:07:08;;;;;;;24.05;10.50;;;;;;;;;;6224960;28;20504;-60
2022/08/22 00:10:26;;;;;;;26.73;11.82;;;;;;;;;;6226680;28;20056;-59
2022/08/22 00:13:44;;;;;;;26.40;13.10;;;;;;;;;;6226344;28;20443;-60
2022/08/22 00:17:23;;;;;;;28.60;13.85;;;;;;;;;;6226705;28;20053;-58
2022/08/22 00:20:48;;;;;;;27.98;13.05;;;;;;;;;;6227220;28;20057;-60
2022/08/22 00:24:23;;;;;;;32.55;13.68;;;;;;;;;;6224326;28;20037;-60
2022/08/22 00:27:36;;;;;;;31.70;13.88;;;;;;;;;;6225674;28;20037;-60
2022/08/22 00:30:48;;;;;;;29.13;13.90;;;;;;;;;;6227236;28;20053;-59
2022/08/22 00:34:04;;;;;;;33.07;13.67;;;;;;;;;;6226107;28;21261;-60
2022/08/22 00:37:30;;;;;;;33.80;14.95;;;;;;;;;;6225940;28;20310;-60
2022/08/22 00:41:06;;;;;;;33.25;14.82;;;;;;;;;;6225205;28;20053;-60
2022/08/22 00:44:42;;;;;;;34.35;14.48;;;;;;;;;;6221862;28;20095;-60
2022/08/22 00:47:57;;;;;;;37.47;15.88;;;;;;;;;;6224345;28;20108;-60
2022/08/22 00:51:33;;;;;;;36.63;16.27;;;;;;;;;;6228456;28;20117;-60
2022/08/22 00:54:33;;;;;;;35.42;16.25;;;;;;;;;;6225183;28;20053;-60
2022/08/22 00:57:47;;;;;;;33.55;15.82;;;;;;;;;;6227900;28;20479;-60
2022/08/22 01:00:55;;;;;;;37.00;15.48;;;;;;;;;;6229269;28;20087;-59
2022/08/22 01:04:26;;;;;;;34.17;15.45;;;;;;;;;;6225549;28;20042;-59
2022/08/22 01:07:39;;;;;;;35.58;15.60;;;;;;;;;;6227454;28;20419;-59
2022/08/22 01:11:02;;;;;;;40.08;16.38;;;;;;;;;;6228300;28;20057;-59
2022/08/22 01:14:18;;;;;;;36.60;15.95;;;;;;;;;;6225462;28;20046;-59
2022/08/22 01:17:31;;;;;;;42.33;16.30;;;;;;;;;;6227124;28;20042;-59
2022/08/22 01:20:49;;;;;;;41.05;16.35;;;;;;;;;;6225542;28;20065;-59
2022/08/22 01:23:52;;;;;;;47.10;16.92;;;;;;;;;;6224935;28;20041;-60
2022/08/22 01:27:11;;;;;;;45.53;17.30;;;;;;;;;;6229286;28;20046;-59
2022/08/22 01:30:31;;;;;;;52.78;17.58;;;;;;;;;;6229849;28;20046;-62
2022/08/22 01:34:23;;;;;;;50.03;17.05;;;;;;;;;;6226570;28;20535;-60
2022/08/22 01:38:09;;;;;;;55.53;16.77;;;;;;;;;;6227941;28;20056;-59
2022/08/22 01:41:25;;;;;;;43.95;16.23;;;;;;;;;;6198313;28;20057;-59
2022/08/22 01:44:44;;;;;;;45.78;15.73;;;;;;;;;;6229386;28;20068;-59
2022/08/22 01:47:48;;;;;;;45.58;16.48;;;;;;;;;;6228972;28;20615;-60
2022/08/22 01:50:53;;;;;;;40.83;15.55;;;;;;;;;;6227654;28;20132;-61
2022/08/22 01:54:04;;;;;;;45.78;14.63;;;;;;;;;;6224543;28;20457;-61
2022/08/22 01:57:07;;;;;;;46.37;15.40;;;;;;;;;;6227928;28;20661;-61
2022/08/22 02:00:15;;;;;;;39.70;13.95;;;;;;;;;;6224818;28;20045;-61
2022/08/22 02:03:23;;;;;;;40.90;15.40;;;;;;;;;;6224098;28;20100;-61
2022/08/22 02:06:43;;;;;;;40.83;14.70;;;;;;;;;;6223030;28;20136;-61
2022/08/22 02:09:51;;;;;;;39.00;14.55;;;;;;;;;;6220500;28;20045;-61
2022/08/22 02:13:08;;;;;;;41.10;13.85;;;;;;;;;;6220614;28;20386;-60
2022/08/22 02:16:16;;;;;;;45.25;15.10;;;;;;;;;;6222032;28;20044;-61
2022/08/22 02:19:25;;;;;;;39.83;15.65;;;;;;;;;;6221988;28;20091;-61
2022/08/22 02:22:33;;;;;;;38.38;14.75;;;;;;;;;;6220981;28;20501;-61
2022/08/22 02:25:51;;;;;;;45.15;14.70;;;;;;;;;;6219488;28;20693;-60
2022/08/22 02:28:59;;;;;;;42.05;14.18;;;;;;;;;;6216598;28;20484;-60
2022/08/22 02:32:22;;;;;;;39.55;14.18;;;;;;;;;;6217035;28;20069;-61
2022/08/22 02:35:38;;;;;;;47.88;15.45;;;;;;;;;;6220336;28;20190;-61
2022/08/22 02:38:53;;;;;;;37.28;14.52;;;;;;;;;;6218548;28;20145;-61
2022/08/22 02:41:56;;;;;;;38.75;14.63;;;;;;;;;;6218500;28;20128;-61
2022/08/22 02:45:15;;;;;;;40.65;13.75;;;;;;;;;;6219622;28;20049;-60
2022/08/22 02:48:19;;;;;;;40.03;14.35;;;;;;;;;;6215927;28;20177;-60
2022/08/22 02:51:35;;;;;;;32.38;13.27;;;;;;;;;;6216850;28;20057;-60
2022/08/22 02:54:52;;;;;;;32.70;12.80;;;;;;;;;;6216507;28;20764;-61
2022/08/22 02:58:03;;;;;;;28.67;11.88;;;;;;;;;;6220971;28;20037;-61
2022/08/22 03:01:16;;;;;;;30.58;11.98;;;;;;;;;;6220001;28;20141;-61
2022/08/22 03:04:45;;;;;;;34.17;13.43;;;;;;;;;;6216671;28;20477;-61
2022/08/22 03:08:11;;;;;;;32.65;12.52;;;;;;;;;;6219799;28;20100;-61
2022/08/22 03:11:23;;;;;;;32.65;14.30;;;;;;;;;;6219447;28;20046;-61
2022/08/22 03:14:30;;;;;;;36.47;13.88;;;;;;;;;;6220894;28;20125;-61
2022/08/22 03:17:45;;;;;;;32.08;13.38;;;;;;;;;;6218631;28;20042;-61
2022/08/22 03:21:47;;;;;;;33.00;13.40;;;;;;;;;;6217701;28;20140;-58
2022/08/22 03:25:11;;;;;;;31.73;12.60;;;;;;;;;;6182460;28;20038;-61
2022/08/22 03:28:20;;;;;;;28.00;12.50;;;;;;;;;;6232794;28;20144;-61
2022/08/22 03:31:23;;;;;;;30.83;12.82;;;;;;;;;;6239951;28;20061;-61
2022/08/22 03:34:25;;;;;;;30.30;13.07;;;;;;;;;;6230303;28;20072;-60
2022/08/22 03:37:34;;;;;;;34.80;13.52;;;;;;;;;;6216765;28;20068;-61
2022/08/22 03:41:03;;;;;;;29.05;12.13;;;;;;;;;;6218711;28;20514;-61
2022/08/22 03:44:35;;;;;;;31.35;12.27;;;;;;;;;;6223338;28;20464;-61
2022/08/22 03:48:05;;;;;;;29.27;11.98;;;;;;;;;;6221406;28;20045;-61
2022/08/22 03:51:30;;;;;;;29.95;12.45;;;;;;;;;;6218648;28;20602;-61
2022/08/22 03:55:08;;;;;;;36.05;12.98;;;;;;;;;;6221655;28;20090;-60
2022/08/22 03:58:09;;;;;;;31.02;12.15;;;;;;;;;;6224396;28;20657;-60
2022/08/22 04:01:12;;;;;;;41.05;14.32;;;;;;;;;;6224058;28;20046;-59
2022/08/22 04:04:34;;;;;;;32.00;13.85;;;;;;;;;;6222353;28;20041;-61
2022/08/22 04:08:06;;;;;;;34.97;15.10;;;;;;;;;;6225104;28;20140;-61
2022/08/22 04:11:16;;;;;;;35.50;15.48;;;;;;;;;;6222686;28;20128;-61
2022/08/22 04:14:16;;;;;;;44.40;17.35;;;;;;;;;;6222524;28;20230;-62
2022/08/22 04:17:31;;;;;;;41.65;17.00;;;;;;;;;;6224255;28;20062;-61
2022/08/22 04:20:36;;;;;;;42.08;17.60;;;;;;;;;;6223273;28;20149;-61
2022/08/22 04:23:50;;;;;;;42.72;17.73;;;;;;;;;;6229973;28;20481;-60
2022/08/22 04:27:26;;;;;;;50.42;20.38;;;;;;;;;;6222230;28;20050;-61
2022/08/22 04:30:30;;;;;;;45.83;18.30;;;;;;;;;;6218926;28;20485;-61
2022/08/22 04:33:37;;;;;;;53.17;20.20;;;;;;;;;;6231200;28;20508;-61
2022/08/22 04:36:44;;;;;;;53.35;19.52;;;;;;;;;;6239004;28;20447;-61
2022/08/22 04:39:52;;;;;;;53.88;21.67;;;;;;;;;;6231806;28;20084;-60
2022/08/22 04:43:02;;;;;;;53.08;20.42;;;;;;;;;;6247416;28;20049;-61
2022/08/22 04:46:14;;;;;;;63.55;24.52;;;;;;;;;;6243846;28;20065;-61
2022/08/22 04:49:32;;;;;;;54.78;22.42;;;;;;;;;;6245614;28;20188;-61
2022/08/22 04:53:12;;;;;;;57.50;22.42;;;;;;;;;;6217044;28;20129;-60
2022/08/22 04:56:58;;;;;;;60.10;23.55;;;;;;;;;;6217255;28;20056;-60
2022/08/22 05:00:07;;;;;;;54.42;22.10;;;;;;;;;;6205845;28;20175;-62
2022/08/22 05:03:14;;;;;;;60.45;23.73;;;;;;;;;;6219068;28;20053;-61
2022/08/22 05:06:18;;;;;;;58.63;22.92;;;;;;;;;;6218076;28;20408;-62
2022/08/22 05:09:27;;;;;;;58.38;25.00;;;;;;;;;;6219762;28;20093;-60
2022/08/22 05:12:39;;;;;;;59.80;23.95;;;;;;;;;;6219362;28;20045;-61
2022/08/22 05:15:44;;;;;;;60.22;23.25;;;;;;;;;;6221310;28;20132;-61
2022/08/22 05:18:51;;;;;;;62.03;23.20;;;;;;;;;;6217827;28;20077;-60
2022/08/22 05:21:52;;;;;;;54.40;23.35;;;;;;;;;;6216250;28;20045;-60
2022/08/22 05:24:58;;;;;;;61.20;24.23;;;;;;;;;;6217131;28;20658;-60
2022/08/22 05:28:31;;;;;;;57.60;24.23;;;;;;;;;;6221144;28;20531;-60
2022/08/22 05:31:35;;;;;;;60.67;23.90;;;;;;;;;;6204680;28;20305;-61
2022/08/22 05:34:38;;;;;;;60.15;24.65;;;;;;;;;;6217406;28;20062;-60
2022/08/22 05:37:46;;;;;;;64.60;26.10;;;;;;;;;;6220406;28;20191;-60
2022/08/22 05:40:56;;;;;;;61.85;25.83;;;;;;;;;;6218107;28;20057;-60
2022/08/22 05:43:57;;;;;;;66.97;26.20;;;;;;;;;;6218833;28;20046;-62
2022/08/22 05:47:00;;;;;;;64.13;26.13;;;;;;;;;;6219967;28;20042;-60
2022/08/22 05:50:07;;;;;;;64.70;26.33;;;;;;;;;;6215654;28;20390;-60
2022/08/22 05:53:29;;;;;;;62.70;25.70;;;;;;;;;;6215720;28;20120;-60
2022/08/22 05:56:39;;;;;;;63.35;24.92;;;;;;;;;;6219130;28;20145;-60
2022/08/22 05:59:43;;;;;;;59.22;25.13;;;;;;;;;;6219470;28;20136;-60
2022/08/22 06:03:01;;;;;;;59.22;24.10;;;;;;;;;;6218940;28;20061;-60
2022/08/22 06:06:12;;;;;;;65.20;25.63;;;;;;;;;;6219900;28;20488;-60
2022/08/22 06:09:49;;;;;;;64.63;26.33;;;;;;;;;;6218298;28;20164;-60
2022/08/22 06:13:04;;;;;;;59.63;23.42;;;;;;;;;;6210666;28;20050;-59
2022/08/22 06:16:08;;;;;;;65.18;25.33;;;;;;;;;;6219551;28;20141;-60
2022/08/22 06:19:12;;;;;;;59.70;24.25;;;;;;;;;;6217403;28;20135;-60
2022/08/22 06:22:17;;;;;;;65.75;25.88;;;;;;;;;;6216592;28;20132;-61
2022/08/22 06:25:29;;;;;;;61.03;24.80;;;;;;;;;;6217705;28;20085;-60
2022/08/22 06:28:37;;;;;;;65.28;26.40;;;;;;;;;;6220094;28;20070;-60
2022/08/22 06:31:45;;;;;;;62.38;25.60;;;;;;;;;;6216910;28;20105;-60
2022/08/22 06:34:47;;;;;;;61.38;23.70;;;;;;;;;;6214236;28;20043;-60
2022/08/22 06:37:49;;;;;;;;;;;;;;;;;;6216011;28;20486;-60
2022/08/22 06:40:53;;;;;;;63.08;24.80;;;;;;;;;;6215630;28;19998;-60
2022/08/22 06:43:55;;;;;;;64.05;24.67;;;;;;;;;;6214741;28;20540;-60
2022/08/22 06:46:59;;;;;;;60.83;24.85;;;;;;;;;;6217297;28;20049;-60
2022/08/22 06:50:04;;;;;;;62.25;25.83;;;;;;;;;;6216275;28;20048;-60
2022/08/22 06:53:09;;;;;;;66.40;25.83;;;;;;;;;;6214098;28;20046;-61
2022/08/22 06:56:11;;;;;;;65.93;26.15;;;;;;;;;;6220239;28;20045;-60
2022/08/22 06:59:15;;;;;;;69.95;26.85;;;;;;;;;;6220732;28;20648;-61
2022/08/22 07:02:33;;;;;;;67.55;26.65;;;;;;;;;;6218085;28;20053;-60
2022/08/22 07:05:38;;;;;;;64.47;26.23;;;;;;;;;;6217646;28;20069;-60
2022/08/22 07:08:39;;;;;;;67.15;26.60;;;;;;;;;;6229683;28;20033;-60
2022/08/22 07:11:41;;;;;;;70.10;27.80;;;;;;;;;;6235239;28;20499;-60
2022/08/22 07:14:46;;;;;;;69.82;27.38;;;;;;;;;;6233643;28;20038;-60
2022/08/22 07:17:56;;;;;;;68.25;25.88;;;;;;;;;;6224822;28;20121;-60
2022/08/22 07:21:03;;;;;;;63.78;25.48;;;;;;;;;;6223298;28;20744;-61
2022/08/22 07:24:03;;;;;;;71.45;26.90;;;;;;;;;;6225597;28;20136;-60
2022/08/22 07:27:22;;;;;;;71.17;26.63;;;;;;;;;;6217362;28;20755;-60
2022/08/22 07:30:32;;;;;;;73.40;26.85;;;;;;;;;;6231700;28;20136;-61
2022/08/22 07:33:49;;;;;;;75.07;27.38;;;;;;;;;;6234679;28;20041;-60
2022/08/22 07:37:05;;;;;;;70.43;27.63;;;;;;;;;;6228662;28;20145;-59
2022/08/22 07:40:43;;;;;;;74.57;27.02;;;;;;;;;;6223172;28;20361;-60
2022/08/22 07:43:51;;;;;;;78.53;29.92;;;;;;;;;;6234861;28;20482;-61
2022/08/22 07:46:59;;;;;;;75.38;29.02;;;;;;;;;;6237328;28;20204;-60
2022/08/22 07:50:06;;;;;;;85.97;31.55;;;;;;;;;;6235211;28;20192;-60
2022/08/22 07:53:23;;;;;;;84.93;30.20;;;;;;;;;;6238050;28;20128;-60
2022/08/22 07:56:28;;;;;;;88.45;34.40;;;;;;;;;;6236301;28;20586;-60
2022/08/22 07:59:32;;;;;;;85.97;32.20;;;;;;;;;;6231789;28;20041;-61
2022/08/22 08:02:32;;;;;;;92.25;34.38;;;;;;;;;;6219300;28;20140;-61
2022/08/22 08:05:35;;;;;;;99.90;34.27;;;;;;;;;;6221781;28;20045;-60
2022/08/22 08:08:42;;;;;;;95.68;33.55;;;;;;;;;;6221578;28;20881;-59
2022/08/22 08:11:43;;;;;;;94.32;34.30;;;;;;;;;;6218953;28;20141;-60
2022/08/22 08:14:50;;;;;;;104.72;36.47;;;;;;;;;;6221158;28;20100;-60
2022/08/22 08:17:58;;;;;;;100.55;34.83;;;;;;;;;;6227374;28;20038;-60
2022/08/22 08:21:03;;;;;;;92.35;33.75;;;;;;;;;;6235295;28;20133;-60
2022/08/22 08:24:07;;;;;;;94.63;34.88;;;;;;;;;;6216550;28;20034;-60
2022/08/22 08:30:53;;;;;;;93.78;33.35;;;;;;;;;;6219494;28;20073;-59
2022/08/22 08:34:18;;;;;;;91.65;32.50;;;;;;;;;;6226403;28;20144;-59
2022/08/22 08:37:26;;;;;;;93.43;35.00;;;;;;;;;;6234427;28;20049;-59
2022/08/22 08:40:29;;;;;;;89.28;32.65;;;;;;;;;;6225796;28;20144;-59
2022/08/22 08:43:58;;;;;;;104.13;35.33;;;;;;;;;;6233986;28;20522;-59
2022/08/22 08:47:17;;;;;;;99.20;35.17;;;;;;;;;;6232155;28;20046;-60
2022/08/22 08:50:36;;;;;;;104.40;36.53;;;;;;;;;;6227483;28;20059;-60
2022/08/22 08:54:08;;;;;;;111.45;38.40;;;;;;;;;;6218336;28;20508;-60
2022/08/22 08:57:23;;;;;;;99.50;34.22;;;;;;;;;;6231959;28;20050;-60
2022/08/22 09:00:50;;;;;;;82.60;29.90;;;;;;;;;;6219954;28;20073;-62
2022/08/22 09:04:05;;;;;;;84.15;30.20;;;;;;;;;;6220881;28;20069;-61
2022/08/22 09:07:25;;;;;;;84.22;30.80;;;;;;;;;;6220303;28;20056;-60
2022/08/22 09:10:47;;;;;;;82.40;29.90;;;;;;;;;;6217826;28;20740;-60
2022/08/22 09:14:25;;;;;;;82.38;29.90;;;;;;;;;;6219348;28;20165;-60
2022/08/22 09:17:55;;;;;;;83.88;30.02;;;;;;;;;;6220646;28;20108;-61
2022/08/22 09:21:10;;;;;;;87.07;28.75;;;;;;;;;;6215206;28;20043;-60
2022/08/22 09:24:34;;;;;;;92.22;30.73;;;;;;;;;;6228710;28;20179;-60
2022/08/22 09:27:37;;;;;;;97.80;31.25;;;;;;;;;;6233419;28;20042;-60
2022/08/22 09:30:56;;;;;;;95.72;31.15;;;;;;;;;;6218680;28;20050;-60
2022/08/22 09:34:09;;;;;;;89.07;30.60;;;;;;;;;;6221285;28;20048;-59
2022/08/22 09:37:27;;;;;;;84.68;28.63;;;;;;;;;;6215544;28;20073;-61
2022/08/22 09:40:43;;;;;;;87.15;30.15;;;;;;;;;;6217985;28;20046;-61
2022/08/22 09:43:54;;;;;;;88.53;28.35;;;;;;;;;;6220511;28;20128;-59
2022/08/22 09:47:05;;;;;;;84.78;28.75;;;;;;;;;;6221087;28;20053;-59
2022/08/22 09:50:20;;;;;;;89.80;28.63;;;;;;;;;;6222809;28;20038;-59
2022/08/22 09:53:31;;;;;;;84.07;28.92;;;;;;;;;;6219281;28;20098;-60
2022/08/22 09:56:42;;;;;;;84.18;26.83;;;;;;;;;;6218169;28;20094;-61
2022/08/22 10:00:30;;;;;;;81.68;28.08;;;;;;;;;;6217855;28;20490;-60
2022/08/22 10:03:45;;;;;;;83.40;27.02;;;;;;;;;;6217922;28;20115;-60
2022/08/22 10:07:07;;;;;;;86.75;27.05;;;;;;;;;;6218924;28;20477;-61
2022/08/22 10:10:25;;;;;;;84.78;26.67;;;;;;;;;;6230345;28;20077;-60
2022/08/22 10:13:55;;;;;;;83.85;27.33;;;;;;;;;;6221151;28;20141;-60
2022/08/22 10:17:28;;;;;;;79.63;27.58;;;;;;;;;;6233647;28;20041;-61
2022/08/22 10:20:35;;;;;;;78.50;28.08;;;;;;;;;;6235312;28;20481;-61
2022/08/22 10:23:49;;;;;;;81.03;27.73;;;;;;;;;;6237976;28;20059;-61
2022/08/22 10:26:55;;;;;;;83.03;27.85;;;;;;;;;;6231438;28;20038;-61
2022/08/22 10:30:10;;;;;;;77.97;26.75;;;;;;;;;;6221680;28;20155;-61
2022/08/22 10:33:20;;;;;;;79.82;26.88;;;;;;;;;;6221341;28;20041;-61
2022/08/22 10:36:29;;;;;;;81.18;28.10;;;;;;;;;;6216497;28;20073;-60
2022/08/22 10:39:42;;;;;;;76.10;26.65;;;;;;;;;;6217675;28;20128;-60
2022/08/22 10:43:03;;;;;;;81.43;27.52;;;;;;;;;;6216292;28;20049;-60
2022/08/22 10:46:14;;;;;;;70.13;26.02;;;;;;;;;;6206136;28;20129;-60
2022/08/22 10:49:18;;;;;;;78.82;26.48;;;;;;;;;;6216173;28;20104;-61
2022/08/22 10:52:26;;;;;;;70.47;27.23;;;;;;;;;;6230335;28;20423;-61
2022/08/22 10:55:27;;;;;;;78.10;27.52;;;;;;;;;;6240035;28;20041;-60
2022/08/22 10:58:31;;;;;;;;;;;;;;;;;;6240843;28;20162;-61
2022/08/22 11:01:37;;;;;;;74.25;25.95;;;;;;;;;;6237649;28;19956;-61
2022/08/22 11:05:01;;;;;;;77.18;28.25;;;;;;;;;;6225545;28;20180;-60
2022/08/22 11:08:11;;;;;;;81.70;28.90;;;;;;;;;;6225013;28;20046;-61
2022/08/22 11:11:37;;;;;;;78.15;29.83;;;;;;;;;;6225332;28;20055;-61
2022/08/22 11:15:03;;;;;;;78.45;29.92;;;;;;;;;;6228256;28;20049;-61
2022/08/22 11:18:27;;;;;;;81.68;28.52;;;;;;;;;;6238550;28;20076;-60
2022/08/22 11:21:36;;;;;;;74.40;28.13;;;;;;;;;;6226003;28;20089;-60
2022/08/22 11:24:42;;;;;;;79.97;28.55;;;;;;;;;;6225525;28;20050;-60
2022/08/22 11:28:04;;;;;;;78.78;29.35;;;;;;;;;;6240569;28;20107;-61
2022/08/22 11:31:05;;;;;;;;;;;;;;;;;;6225262;28;20469;-61
2022/08/22 11:34:36;;;;;;;77.07;28.02;;;;;;;;;;6227868;28;19921;-61
2022/08/22 11:37:46;;;;;;;84.28;29.50;;;;;;;;;;6230940;28;20132;-61
2022/08/22 11:40:58;;;;;;;77.45;29.95;;;;;;;;;;6241806;28;20533;-61
2022/08/22 11:44:02;;;;;;;83.32;30.48;;;;;;;;;;6240472;28;20060;-61
2022/08/22 11:47:09;;;;;;;84.75;30.38;;;;;;;;;;6236999;28;20058;-61
2022/08/22 11:50:27;;;;;;;74.75;28.90;;;;;;;;;;6218772;28;20149;-61
2022/08/22 11:54:14;;;;;;;83.13;31.70;;;;;;;;;;6218002;28;20132;-60
2022/08/22 11:57:46;;;;;;;81.75;31.27;;;;;;;;;;6188344;28;20077;-61
2022/08/22 12:00:57;;;;;;;68.68;27.80;;;;;;;;;;6199207;28;20125;-60
2022/08/22 12:04:07;;;;;;;73.03;27.90;;;;;;;;;;6196766;28;20521;-61
2022/08/22 12:07:08;;;;;;;69.88;27.88;;;;;;;;;;6195958;28;20618;-60
2022/08/22 12:10:16;;;;;;;73.27;29.37;;;;;;;;;;6196269;28;20046;-60
2022/08/22 12:13:45;;;;;;;78.13;30.15;;;;;;;;;;6196853;28;20057;-61
2022/08/22 12:16:48;;;;;;;75.07;29.27;;;;;;;;;;6188863;28;20128;-61
2022/08/22 12:20:24;;;;;;;77.40;29.98;;;;;;;;;;6197058;28;20081;-61
2022/08/22 12:23:45;;;;;;;80.63;29.92;;;;;;;;;;6199401;28;20161;-61
2022/08/22 12:26:56;;;;;;;79.60;32.50;;;;;;;;;;6193985;28;20469;-61
2022/08/22 12:30:12;;;;;;;73.68;28.75;;;;;;;;;;6196908;28;20878;-60
2022/08/22 12:33:34;;;;;;;79.53;29.90;;;;;;;;;;6195930;28;20072;-60
2022/08/22 12:36:41;;;;;;;64.72;28.30;;;;;;;;;;6195824;28;20077;-60
2022/08/22 12:39:54;;;;;;;68.97;29.35;;;;;;;;;;6196571;28;20041;-59
2022/08/22 12:43:19;;;;;;;63.05;27.52;;;;;;;;;;6194715;28;20077;-60
2022/08/22 12:46:43;;;;;;;61.58;28.10;;;;;;;;;;6179716;28;20061;-61
2022/08/22 12:50:02;;;;;;;68.05;28.13;;;;;;;;;;6230082;28;20056;-60
2022/08/22 12:53:25;;;;;;;64.25;27.77;;;;;;;;;;6235686;28;20056;-59
2022/08/22 12:56:40;;;;;;;61.30;25.77;;;;;;;;;;6236171;28;20120;-60
2022/08/22 12:59:45;;;;;;;61.92;26.35;;;;;;;;;;6241378;28;20042;-60
2022/08/22 13:02:52;;;;;;;61.70;26.00;;;;;;;;;;6239894;28;20069;-60
2022/08/22 13:05:54;;;;;;;61.33;26.20;;;;;;;;;;6238763;28;20041;-61
2022/08/22 13:08:55;;;;;;;59.88;27.48;;;;;;;;;;6237574;28;20933;-60
2022/08/22 13:12:25;;;;;;;60.20;26.83;;;;;;;;;;6236590;28;20045;-60
2022/08/22 13:15:32;;;;;;;58.22;25.52;;;;;;;;;;6238314;28;20049;-61
2022/08/22 13:18:38;;;;;;;69.85;27.70;;;;;;;;;;6238593;28;20518;-60
2022/08/22 13:21:45;;;;;;;72.78;28.08;;;;;;;;;;6239350;28;20492;-60
2022/08/22 13:24:48;;;;;;;71.07;29.50;;;;;;;;;;6238159;28;20132;-60
2022/08/22 13:27:58;;;;;;;70.03;28.63;;;;;;;;;;6233035;28;20132;-60
2022/08/22 13:31:02;;;;;;;71.95;29.80;;;;;;;;;;6234411;28;20034;-60
2022/08/22 13:34:25;;;;;;;72.82;30.08;;;;;;;;;;6233255;28;20129;-60
2022/08/22 13:37:35;;;;;;;71.32;29.98;;;;;;;;;;6237889;28;20045;-60
2022/08/22 13:40:38;;;;;;;77.70;32.03;;;;;;;;;;6240586;28;20132;-60
2022/08/22 13:44:03;;;;;;;73.18;30.90;;;;;;;;;;6237893;28;20060;-61
2022/08/22 13:47:07;;;;;;;79.10;32.83;;;;;;;;;;6237100;28;20496;-60
2022/08/22 13:50:20;;;;;;;82.03;34.08;;;;;;;;;;6239882;28;20056;-60
2022/08/22 13:53:35;;;;;;;85.20;33.45;;;;;;;;;;6234635;28;20564;-60
2022/08/22 13:56:44;;;;;;;78.57;34.25;;;;;;;;;;6231732;28;20152;-59
2022/08/22 13:59:51;;;;;;;89.55;36.08;;;;;;;;;;6238194;28;20069;-60
2022/08/22 14:02:57;;;;;;;87.82;35.35;;;;;;;;;;6233389;28;20398;-59
2022/08/22 14:05:59;;;;;;;90.15;34.78;;;;;;;;;;6229519;28;20500;-60
2022/08/22 14:09:06;;;;;;;;;;;;;;;;;;6237924;28;20049;-60
2022/08/22 14:12:19;;;;;;;89.63;35.58;;;;;;;;;;6232939;28;20098;-60
2022/08/22 14:15:25;;;;;;;90.82;35.97;;;;;;;;;;6234498;28;20073;-59
2022/08/22 14:18:37;;;;;;;96.75;39.25;;;;;;;;;;6236861;28;20041;-60
2022/08/22 14:21:47;;;;;;;87.28;37.08;;;;;;;;;;6236871;28;20052;-60
2022/08/22 14:24:52;;;;;;;91.95;37.63;;;;;;;;;;6236470;28;20048;-60
2022/08/22 14:28:00;;;;;;;95.40;37.63;;;;;;;;;;6232853;28;20053;-60
2022/08/22 14:31:09;;;;;;;92.13;36.92;;;;;;;;;;6238483;28;20084;-60
2022/08/22 14:34:13;;;;;;;88.32;35.47;;;;;;;;;;6215526;28;20143;-59
2022/08/22 14:37:20;;;;;;;91.03;34.88;;;;;;;;;;6227660;28;20540;-59
2022/08/22 14:40:28;;;;;;;92.35;36.50;;;;;;;;;;6223961;28;20053;-59
2022/08/22 14:43:32;;;;;;;92.78;35.10;;;;;;;;;;6224964;28;20053;-60
2022/08/22 14:46:40;;;;;;;88.10;36.28;;;;;;;;;;6226512;28;20107;-62
2022/08/22 14:50:08;;;;;;;88.60;35.78;;;;;;;;;;6226663;28;20053;-62
2022/08/22 14:53:10;;;;;;;89.22;34.78;;;;;;;;;;6216055;28;20124;-62
2022/08/22 14:56:23;;;;;;;87.78;35.47;;;;;;;;;;6222822;28;20834;-62
2022/08/22 14:59:31;;;;;;;;;;;;;;;;;;6222021;28;20188;-60
2022/08/22 15:02:32;;;;;;;80.75;32.17;;;;;;;;;;6220559;28;19933;-62
2022/08/22 15:05:42;;;;;;;82.17;32.87;;;;;;;;;;6223891;28;20061;-61
2022/08/22 15:08:43;;;;;;;85.90;35.20;;;;;;;;;;6222391;28;20049;-62
2022/08/22 15:11:46;;;;;;;84.07;33.77;;;;;;;;;;6223406;28;20044;-61
2022/08/22 15:14:51;;;;;;;86.47;34.47;;;;;;;;;;6221041;28;20389;-60
2022/08/22 15:17:52;;;;;;;88.97;34.88;;;;;;;;;;6224691;28;20079;-61
2022/08/22 15:21:09;;;;;;;88.83;35.80;;;;;;;;;;6222957;28;20054;-59
2022/08/22 15:24:13;;;;;;;88.68;34.45;;;;;;;;;;6218779;28;20437;-61
2022/08/22 15:27:18;;;;;;;88.43;35.20;;;;;;;;;;6224148;28;20072;-61
2022/08/22 15:30:33;;;;;;;85.65;33.95;;;;;;;;;;6224212;28;20054;-61
2022/08/22 15:33:42;;;;;;;83.72;34.35;;;;;;;;;;6221976;28;21662;-60
2022/08/22 15:37:25;;;;;;;87.70;35.58;;;;;;;;;;6223176;28;20038;-60
2022/08/22 15:40:31;;;;;;;89.82;35.20;;;;;;;;;;6224635;28;20059;-61
2022/08/22 15:43:34;;;;;;;95.07;37.13;;;;;;;;;;6227942;28;20099;-61
2022/08/22 15:46:58;;;;;;;90.85;36.35;;;;;;;;;;6226900;28;20057;-60
2022/08/22 15:50:04;;;;;;;92.78;36.90;;;;;;;;;;6216259;28;20054;-61
2022/08/22 15:53:20;;;;;;;91.90;37.00;;;;;;;;;;6227033;28;20527;-61
2022/08/22 15:56:26;;;;;;;95.88;37.20;;;;;;;;;;6227742;28;20066;-61
2022/08/22 15:59:38;;;;;;;94.13;37.50;;;;;;;;;;6227074;28;20566;-61
2022/08/22 16:02:52;;;;;;;95.63;35.20;;;;;;;;;;6223141;28;20493;-61
2022/08/22 16:06:11;;;;;;;95.20;37.17;;;;;;;;;;6227005;28;20050;-62
2022/08/22 16:09:37;;;;;;;102.90;37.97;;;;;;;;;;6226266;28;20033;-61
2022/08/22 16:12:46;;;;;;;97.82;35.58;;;;;;;;;;6222999;28;20576;-61
2022/08/22 16:15:47;;;;;;;93.53;35.78;;;;;;;;;;6225842;28;20506;-61
2022/08/22 16:18:47;;;;;;;101.40;38.17;;;;;;;;;;6226799;28;20083;-60
2022/08/22 16:21:51;;;;;;;94.17;36.17;;;;;;;;;;6231463;28;20124;-61
2022/08/22 16:24:57;;;;;;;93.50;36.67;;;;;;;;;;6228655;28;20168;-61
2022/08/22 16:27:57;;;;;;;89.40;35.30;;;;;;;;;;6228869;28;20045;-61
2022/08/22 16:31:16;;;;;;;99.40;37.43;;;;;;;;;;6228331;28;20119;-61
2022/08/22 16:34:16;;;;;;;89.75;34.55;;;;;;;;;;6227599;28;20056;-61
2022/08/22 16:37:42;;;;;;;92.20;35.40;;;;;;;;;;6225965;28;20075;-62
2022/08/22 16:40:47;;;;;;;94.15;36.83;;;;;;;;;;6228947;28;20049;-63
2022/08/22 16:44:25;;;;;;;100.43;36.72;;;;;;;;;;6228086;28;20148;-61
2022/08/22 16:47:28;;;;;;;101.30;36.60;;;;;;;;;;6228490;28;20539;-62
2022/08/22 16:50:34;;;;;;;100.57;37.90;;;;;;;;;;6226717;28;20072;-62
2022/08/22 16:53:38;;;;;;;102.40;37.38;;;;;;;;;;6226351;28;20683;-61
2022/08/22 16:56:45;;;;;;;103.35;38.22;;;;;;;;;;6228396;28;20128;-61
2022/08/22 17:00:20;;;;;;;100.28;36.63;;;;;;;;;;6227985;28;20053;-59
2022/08/22 17:03:56;;;;;;;100.88;37.05;;;;;;;;;;6225663;28;20571;-61
2022/08/22 17:07:05;;;;;;;103.18;38.33;;;;;;;;;;6227347;28;20961;-61
2022/08/22 17:10:25;;;;;;;103.40;37.63;;;;;;;;;;6229021;28;20148;-61
2022/08/22 17:13:55;;;;;;;97.60;36.50;;;;;;;;;;6225902;28;20050;-61
2022/08/22 17:17:11;;;;;;;100.65;37.22;;;;;;;;;;6228733;28;21368;-61
2022/08/22 17:20:15;;;;;;;101.80;37.33;;;;;;;;;;6226300;28;20131;-62
2022/08/22 17:23:24;;;;;;;101.35;39.10;;;;;;;;;;6225135;28;20073;-62
2022/08/22 17:26:33;;;;;;;98.50;37.88;;;;;;;;;;6226106;28;20061;-62
2022/08/22 17:29:48;;;;;;;97.47;37.95;;;;;;;;;;6226988;28;20068;-62
2022/08/22 17:33:23;;;;;;;97.15;35.45;;;;;;;;;;6224576;28;20437;-61
2022/08/22 17:36:26;;;;;;;93.28;35.70;;;;;;;;;;6229435;28;20073;-61
2022/08/22 17:39:35;;;;;;;88.82;34.42;;;;;;;;;;6227284;28;20053;-61
2022/08/22 17:43:09;;;;;;;80.97;32.92;;;;;;;;;;6224936;28;20046;-61
2022/08/22 17:46:16;;;;;;;75.15;33.58;;;;;;;;;;6226707;28;21130;-61
2022/08/22 17:49:28;;;;;;;76.38;30.70;;;;;;;;;;6229676;28;20091;-61
2022/08/22 17:52:39;;;;;;;65.45;29.95;;;;;;;;;;6226897;28;20057;-61
2022/08/22 17:56:05;;;;;;;58.08;26.40;;;;;;;;;;6227893;28;20447;-61
2022/08/22 17:59:18;;;;;;;44.90;22.52;;;;;;;;;;6225271;28;20103;-61
2022/08/22 18:02:34;;;;;;;47.53;22.73;;;;;;;;;;6223941;28;20172;-61
2022/08/22 18:05:45;;;;;;;45.08;21.52;;;;;;;;;;6227534;28;20416;-60
2022/08/22 18:09:00;;;;;;;44.75;21.30;;;;;;;;;;6224224;28;20128;-61
2022/08/22 18:12:14;;;;;;;40.58;20.17;;;;;;;;;;6225297;28;20050;-61
2022/08/22 18:15:33;;;;;;;46.33;22.42;;;;;;;;;;6225088;28;20189;-61
2022/08/22 18:18:37;;;;;;;44.10;20.52;;;;;;;;;;6224870;28;20143;-60
2022/08/22 18:21:50;;;;;;;45.95;21.30;;;;;;;;;;6225855;28;20114;-61
2022/08/22 18:25:00;;;;;;;43.55;20.83;;;;;;;;;;6223380;28;21340;-61
2022/08/22 18:28:03;;;;;;;46.83;21.40;;;;;;;;;;6227621;28;20064;-61
2022/08/22 18:31:34;;;;;;;43.25;20.48;;;;;;;;;;6227117;28;20558;-61
2022/08/22 18:34:43;;;;;;;44.67;20.23;;;;;;;;;;6216872;28;20119;-61
2022/08/22 18:37:48;;;;;;;45.25;20.40;;;;;;;;;;6222317;28;20163;-60
2022/08/22 18:41:14;;;;;;;43.63;21.15;;;;;;;;;;6227125;28;20168;-61
2022/08/22 18:44:22;;;;;;;38.85;19.35;;;;;;;;;;6218959;28;20104;-61
2022/08/22 18:47:33;;;;;;;40.63;20.58;;;;;;;;;;6225589;28;20069;-61
2022/08/22 18:50:35;;;;;;;38.90;18.88;;;;;;;;;;6226086;28;20061;-61